sensor_id;sensor_type;location;lat;lon;timestamp;temperature;humidity
5554;DHT22;2800;49.528;8.666;2023-10-19T00:00:36;11.70;99.90
5554;DHT22;2800;49.528;8.666;2023-10-19T00:03:05;11.60;99.90
5554;DHT22;2800;49.528;8.666;2023-10-19T00:05:32;11.60;99.90
5554;DHT22;2800;49.528;8.666;2023-10-19T00:07:59;11.70;99.90
5554;DHT22;2800;49.528;8.666;2023-10-19T00:10:26;11.70;99.90
5554;DHT22;2800;49.528;8.666;2023-10-19T00:12:54;11.60;99.90
5554;DHT22;2800;49.528;8.666;2023-10-19T00:15:31;11.60;99.90
5554;DHT22;2800;49.528;8.666;2023-10-19T00:17:57;11.70;99.90
5554;DHT22;2800;49.528;8.666;2023-10-19T00:20:31;11.60;99.90
5554;DHT22;2800;49.528;8.666;2023-10-19T00:23:15;11.60;99.90
5554;DHT22;2800;49.528;8.666;2023-10-19T00:25:58;11.60;99.90
5554;DHT22;2800;49.528;8.666;2023-10-19T00:28:24;11.60;99.90
5554;DHT22;2800;49.528;8.666;2023-10-19T00:30:53;11.70;99.90
5554;DHT22;2800;49.528;8.666;2023-10-19T00:33:24;11.70;99.90
5554;DHT22;2800;49.528;8.666;2023-10-19T00:35:54;11.80;99.90
5554;DHT22;2800;49.528;8.666;2023-10-19T00:38:27;11.90;99.90
5554;DHT22;2800;49.528;8.666;2023-10-19T00:40:53;11.90;99.90
5554;DHT22;2800;49.528;8.666;2023-10-19T00:43:31;12.10;99.90
5554;DHT22;2800;49.528;8.666;2023-10-19T00:46:08;12.20;99.90
5554;DHT22;2800;49.528;8.666;2023-10-19T00:48:56;12.70;99.90
5554;DHT22;2800;49.528;8.666;2023-10-19T00:51:31;12.70;99.90
5554;DHT22;2800;49.528;8.666;2023-10-19T00:54:11;12.70;99.90
5554;DHT22;2800;49.528;8.666;2023-10-19T00:56:45;12.80;99.90
5554;DHT22;2800;49.528;8.666;2023-10-19T00:59:15;12.80;99.90
5554;DHT22;2800;49.528;8.666;2023-10-19T01:02:11;13.00;99.90
5554;DHT22;2800;49.528;8.666;2023-10-19T01:04:50;13.10;99.90
5554;DHT22;2800;49.528;8.666;2023-10-19T01:07:18;13.10;99.90
5554;DHT22;2800;49.528;8.666;2023-10-19T01:10:02;13.10;99.90
5554;DHT22;2800;49.528;8.666;2023-10-19T01:12:33;12.40;99.90
5554;DHT22;2800;49.528;8.666;2023-10-19T01:15:15;13.20;99.90
5554;DHT22;2800;49.528;8.666;2023-10-19T01:17:48;13.10;99.90
5554;DHT22;2800;49.528;8.666;2023-10-19T01:20:20;13.10;99.90
5554;DHT22;2800;49.528;8.666;2023-10-19T01:23:06;12.90;99.90
5554;DHT22;2800;49.528;8.666;2023-10-19T01:28:08;12.90;99.90
5554;DHT22;2800;49.528;8.666;2023-10-19T01:30:38;13.00;99.90
5554;DHT22;2800;49.528;8.666;2023-10-19T01:33:04;13.10;99.90
5554;DHT22;2800;49.528;8.666;2023-10-19T01:35:41;13.10;99.90
5554;DHT22;2800;49.528;8.666;2023-10-19T01:38:25;13.10;99.90
5554;DHT22;2800;49.528;8.666;2023-10-19T01:40:50;13.00;99.90
5554;DHT22;2800;49.528;8.666;2023-10-19T01:43:17;12.90;99.90
5554;DHT22;2800;49.528;8.666;2023-10-19T01:46:00;12.90;99.90
5554;DHT22;2800;49.528;8.666;2023-10-19T01:48:53;12.80;99.90
5554;DHT22;2800;49.528;8.666;2023-10-19T01:51:23;12.80;99.90
5554;DHT22;2800;49.528;8.666;2023-10-19T01:53:50;12.70;99.90
5554;DHT22;2800;49.528;8.666;2023-10-19T01:56:16;12.70;99.90
5554;DHT22;2800;49.528;8.666;2023-10-19T01:58:45;12.70;99.90
5554;DHT22;2800;49.528;8.666;2023-10-19T02:01:15;12.60;99.90
5554;DHT22;2800;49.528;8.666;2023-10-19T02:03:47;12.60;99.90
5554;DHT22;2800;49.528;8.666;2023-10-19T02:06:14;12.50;99.90
5554;DHT22;2800;49.528;8.666;2023-10-19T02:08:49;12.60;99.90
5554;DHT22;2800;49.528;8.666;2023-10-19T02:11:22;12.60;99.90
5554;DHT22;2800;49.528;8.666;2023-10-19T02:13:50;12.70;99.90
5554;DHT22;2800;49.528;8.666;2023-10-19T02:16:16;12.80;99.90
5554;DHT22;2800;49.528;8.666;2023-10-19T02:18:45;12.80;99.90
5554;DHT22;2800;49.528;8.666;2023-10-19T02:21:11;12.80;99.90
5554;DHT22;2800;49.528;8.666;2023-10-19T02:23:40;12.80;99.90
5554;DHT22;2800;49.528;8.666;2023-10-19T02:26:10;12.80;99.90
5554;DHT22;2800;49.528;8.666;2023-10-19T02:28:39;12.90;99.90
5554;DHT22;2800;49.528;8.666;2023-10-19T02:31:04;13.00;99.90
5554;DHT22;2800;49.528;8.666;2023-10-19T02:33:41;13.00;99.90
5554;DHT22;2800;49.528;8.666;2023-10-19T02:36:07;13.00;99.90
5554;DHT22;2800;49.528;8.666;2023-10-19T02:38:41;13.00;99.90
5554;DHT22;2800;49.528;8.666;2023-10-19T02:41:09;13.00;99.90
5554;DHT22;2800;49.528;8.666;2023-10-19T02:43:36;13.00;99.90
5554;DHT22;2800;49.528;8.666;2023-10-19T02:46:02;13.00;99.90
5554;DHT22;2800;49.528;8.666;2023-10-19T02:48:29;13.10;99.90
5554;DHT22;2800;49.528;8.666;2023-10-19T02:50:54;13.10;99.90
5554;DHT22;2800;49.528;8.666;2023-10-19T02:53:20;13.00;99.90
5554;DHT22;2800;49.528;8.666;2023-10-19T02:55:45;12.90;99.90
5554;DHT22;2800;49.528;8.666;2023-10-19T02:58:11;12.90;99.90
5554;DHT22;2800;49.528;8.666;2023-10-19T03:00:38;13.00;99.90
5554;DHT22;2800;49.528;8.666;2023-10-19T03:03:05;13.10;99.90
5554;DHT22;2800;49.528;8.666;2023-10-19T03:05:32;13.00;99.90
5554;DHT22;2800;49.528;8.666;2023-10-19T03:08:01;13.00;99.90
5554;DHT22;2800;49.528;8.666;2023-10-19T03:10:31;13.10;99.90
5554;DHT22;2800;49.528;8.666;2023-10-19T03:13:08;13.00;99.90
5554;DHT22;2800;49.528;8.666;2023-10-19T03:15:33;13.00;99.90
5554;DHT22;2800;49.528;8.666;2023-10-19T03:17:59;13.00;99.90
5554;DHT22;2800;49.528;8.666;2023-10-19T03:20:30;13.00;99.90
5554;DHT22;2800;49.528;8.666;2023-10-19T03:22:59;12.90;99.90
5554;DHT22;2800;49.528;8.666;2023-10-19T03:25:26;12.90;99.90
5554;DHT22;2800;49.528;8.666;2023-10-19T03:28:11;12.80;99.90
5554;DHT22;2800;49.528;8.666;2023-10-19T03:30:37;12.80;99.90
5554;DHT22;2800;49.528;8.666;2023-10-19T03:33:06;12.80;99.90
5554;DHT22;2800;49.528;8.666;2023-10-19T03:35:36;12.80;99.90
5554;DHT22;2800;49.528;8.666;2023-10-19T03:38:03;12.80;99.90
5554;DHT22;2800;49.528;8.666;2023-10-19T03:40:34;12.80;99.90
5554;DHT22;2800;49.528;8.666;2023-10-19T03:43:00;12.90;99.90
5554;DHT22;2800;49.528;8.666;2023-10-19T03:45:30;13.00;99.90
5554;DHT22;2800;49.528;8.666;2023-10-19T03:47:59;13.10;99.90
5554;DHT22;2800;49.528;8.666;2023-10-19T03:50:32;13.20;99.90
5554;DHT22;2800;49.528;8.666;2023-10-19T03:52:58;12.30;99.90
5554;DHT22;2800;49.528;8.666;2023-10-19T03:55:24;13.50;99.90
5554;DHT22;2800;49.528;8.666;2023-10-19T03:57:49;13.60;99.90
5554;DHT22;2800;49.528;8.666;2023-10-19T04:00:20;13.70;99.90
5554;DHT22;2800;49.528;8.666;2023-10-19T04:02:50;13.80;99.90
5554;DHT22;2800;49.528;8.666;2023-10-19T04:05:20;13.90;99.90
5554;DHT22;2800;49.528;8.666;2023-10-19T04:07:47;14.10;99.90
5554;DHT22;2800;49.528;8.666;2023-10-19T04:10:15;14.10;99.90
5554;DHT22;2800;49.528;8.666;2023-10-19T04:13:04;14.20;99.90
5554;DHT22;2800;49.528;8.666;2023-10-19T04:15:30;14.20;99.90
5554;DHT22;2800;49.528;8.666;2023-10-19T04:17:59;14.20;99.90
5554;DHT22;2800;49.528;8.666;2023-10-19T04:20:26;14.20;99.90
5554;DHT22;2800;49.528;8.666;2023-10-19T04:22:55;14.10;99.90
5554;DHT22;2800;49.528;8.666;2023-10-19T04:25:31;14.20;99.90
5554;DHT22;2800;49.528;8.666;2023-10-19T04:27:56;14.20;99.90
5554;DHT22;2800;49.528;8.666;2023-10-19T04:30:22;14.20;99.90
5554;DHT22;2800;49.528;8.666;2023-10-19T04:32:49;14.20;99.90
5554;DHT22;2800;49.528;8.666;2023-10-19T04:35:15;14.30;99.90
5554;DHT22;2800;49.528;8.666;2023-10-19T04:37:53;14.30;99.90
5554;DHT22;2800;49.528;8.666;2023-10-19T04:40:19;14.30;99.90
5554;DHT22;2800;49.528;8.666;2023-10-19T04:42:45;14.30;99.90
5554;DHT22;2800;49.528;8.666;2023-10-19T04:45:11;14.30;99.90
5554;DHT22;2800;49.528;8.666;2023-10-19T04:47:38;14.30;99.90
5554;DHT22;2800;49.528;8.666;2023-10-19T04:50:05;14.30;99.90
5554;DHT22;2800;49.528;8.666;2023-10-19T04:52:31;14.30;99.90
5554;DHT22;2800;49.528;8.666;2023-10-19T04:54:57;14.20;99.90
5554;DHT22;2800;49.528;8.666;2023-10-19T04:57:23;14.20;99.90
5554;DHT22;2800;49.528;8.666;2023-10-19T04:59:49;14.20;99.90
5554;DHT22;2800;49.528;8.666;2023-10-19T05:02:15;14.20;99.90
5554;DHT22;2800;49.528;8.666;2023-10-19T05:04:41;14.20;99.90
5554;DHT22;2800;49.528;8.666;2023-10-19T05:07:07;14.20;99.90
5554;DHT22;2800;49.528;8.666;2023-10-19T05:09:37;14.20;99.90
5554;DHT22;2800;49.528;8.666;2023-10-19T05:12:04;14.20;99.90
5554;DHT22;2800;49.528;8.666;2023-10-19T05:14:34;14.20;99.90
5554;DHT22;2800;49.528;8.666;2023-10-19T05:17:04;14.10;99.90
5554;DHT22;2800;49.528;8.666;2023-10-19T05:19:33;14.10;99.90
5554;DHT22;2800;49.528;8.666;2023-10-19T05:22:00;14.10;99.90
5554;DHT22;2800;49.528;8.666;2023-10-19T05:24:26;14.10;99.90
5554;DHT22;2800;49.528;8.666;2023-10-19T05:26:53;14.10;99.90
5554;DHT22;2800;49.528;8.666;2023-10-19T05:29:19;14.10;99.90
5554;DHT22;2800;49.528;8.666;2023-10-19T05:31:45;14.10;99.90
5554;DHT22;2800;49.528;8.666;2023-10-19T05:34:11;14.10;99.90
5554;DHT22;2800;49.528;8.666;2023-10-19T05:36:36;14.20;99.90
5554;DHT22;2800;49.528;8.666;2023-10-19T05:39:02;14.10;99.90
5554;DHT22;2800;49.528;8.666;2023-10-19T05:41:29;14.20;99.90
5554;DHT22;2800;49.528;8.666;2023-10-19T05:43:56;14.20;99.90
5554;DHT22;2800;49.528;8.666;2023-10-19T05:46:22;14.10;99.90
5554;DHT22;2800;49.528;8.666;2023-10-19T05:48:50;14.10;99.90
5554;DHT22;2800;49.528;8.666;2023-10-19T05:51:16;14.10;99.90
5554;DHT22;2800;49.528;8.666;2023-10-19T05:53:42;14.10;99.90
5554;DHT22;2800;49.528;8.666;2023-10-19T05:56:10;14.10;99.90
5554;DHT22;2800;49.528;8.666;2023-10-19T05:58:36;14.00;99.90
5554;DHT22;2800;49.528;8.666;2023-10-19T06:01:02;14.00;99.90
5554;DHT22;2800;49.528;8.666;2023-10-19T06:03:27;14.00;99.90
5554;DHT22;2800;49.528;8.666;2023-10-19T06:05:53;14.00;99.90
5554;DHT22;2800;49.528;8.666;2023-10-19T06:08:22;14.00;99.90
5554;DHT22;2800;49.528;8.666;2023-10-19T06:10:51;14.00;99.90
5554;DHT22;2800;49.528;8.666;2023-10-19T06:13:17;14.00;99.90
5554;DHT22;2800;49.528;8.666;2023-10-19T06:15:42;14.10;99.90
5554;DHT22;2800;49.528;8.666;2023-10-19T06:18:08;14.00;99.90
5554;DHT22;2800;49.528;8.666;2023-10-19T06:20:34;14.10;99.90
5554;DHT22;2800;49.528;8.666;2023-10-19T06:23:00;14.10;99.90
5554;DHT22;2800;49.528;8.666;2023-10-19T06:25:30;14.10;99.90
5554;DHT22;2800;49.528;8.666;2023-10-19T06:27:56;14.10;99.90
5554;DHT22;2800;49.528;8.666;2023-10-19T06:30:23;14.10;99.90
5554;DHT22;2800;49.528;8.666;2023-10-19T06:35:16;14.10;99.90
5554;DHT22;2800;49.528;8.666;2023-10-19T06:37:42;14.10;99.90
5554;DHT22;2800;49.528;8.666;2023-10-19T06:40:09;14.10;99.90
5554;DHT22;2800;49.528;8.666;2023-10-19T06:42:39;14.20;99.90
5554;DHT22;2800;49.528;8.666;2023-10-19T06:45:05;14.20;99.90
5554;DHT22;2800;49.528;8.666;2023-10-19T06:47:32;14.20;99.90
5554;DHT22;2800;49.528;8.666;2023-10-19T06:50:04;14.30;99.90
5554;DHT22;2800;49.528;8.666;2023-10-19T06:52:30;14.40;99.90
5554;DHT22;2800;49.528;8.666;2023-10-19T06:54:57;14.60;99.90
5554;DHT22;2800;49.528;8.666;2023-10-19T06:57:23;14.80;99.90
5554;DHT22;2800;49.528;8.666;2023-10-19T06:59:48;14.90;99.90
5554;DHT22;2800;49.528;8.666;2023-10-19T07:02:14;15.20;99.90
5554;DHT22;2800;49.528;8.666;2023-10-19T07:04:39;15.30;99.90
5554;DHT22;2800;49.528;8.666;2023-10-19T07:07:05;15.50;99.90
5554;DHT22;2800;49.528;8.666;2023-10-19T07:09:30;15.60;99.90
5554;DHT22;2800;49.528;8.666;2023-10-19T07:11:56;15.50;99.90
5554;DHT22;2800;49.528;8.666;2023-10-19T07:14:22;15.50;99.90
5554;DHT22;2800;49.528;8.666;2023-10-19T07:16:49;15.40;99.90
5554;DHT22;2800;49.528;8.666;2023-10-19T07:19:16;15.30;99.90
5554;DHT22;2800;49.528;8.666;2023-10-19T07:21:41;15.30;99.90
5554;DHT22;2800;49.528;8.666;2023-10-19T07:24:09;15.40;99.90
5554;DHT22;2800;49.528;8.666;2023-10-19T07:26:36;15.40;99.90
5554;DHT22;2800;49.528;8.666;2023-10-19T07:29:16;15.40;99.90
5554;DHT22;2800;49.528;8.666;2023-10-19T07:31:42;15.40;99.90
5554;DHT22;2800;49.528;8.666;2023-10-19T07:34:08;15.40;99.90
5554;DHT22;2800;49.528;8.666;2023-10-19T07:36:38;15.40;99.90
5554;DHT22;2800;49.528;8.666;2023-10-19T07:39:03;15.50;99.90
5554;DHT22;2800;49.528;8.666;2023-10-19T07:41:29;15.50;99.90
5554;DHT22;2800;49.528;8.666;2023-10-19T07:44:01;15.50;99.90
5554;DHT22;2800;49.528;8.666;2023-10-19T07:46:26;15.60;99.90
5554;DHT22;2800;49.528;8.666;2023-10-19T07:48:54;15.50;99.90
5554;DHT22;2800;49.528;8.666;2023-10-19T07:51:20;15.50;99.90
5554;DHT22;2800;49.528;8.666;2023-10-19T07:53:45;15.50;99.90
5554;DHT22;2800;49.528;8.666;2023-10-19T07:56:11;15.50;99.90
5554;DHT22;2800;49.528;8.666;2023-10-19T07:58:36;15.50;99.90
5554;DHT22;2800;49.528;8.666;2023-10-19T08:01:02;15.60;99.90
5554;DHT22;2800;49.528;8.666;2023-10-19T08:03:27;15.70;99.90
5554;DHT22;2800;49.528;8.666;2023-10-19T08:05:53;15.80;99.90
5554;DHT22;2800;49.528;8.666;2023-10-19T08:08:19;15.90;99.90
5554;DHT22;2800;49.528;8.666;2023-10-19T08:10:45;16.00;99.90
5554;DHT22;2800;49.528;8.666;2023-10-19T08:13:10;16.10;99.90
5554;DHT22;2800;49.528;8.666;2023-10-19T08:15:38;15.90;99.90
5554;DHT22;2800;49.528;8.666;2023-10-19T08:18:03;15.90;99.90
5554;DHT22;2800;49.528;8.666;2023-10-19T08:20:31;16.00;99.90
5554;DHT22;2800;49.528;8.666;2023-10-19T08:22:57;16.30;99.90
5554;DHT22;2800;49.528;8.666;2023-10-19T08:25:24;16.50;99.90
5554;DHT22;2800;49.528;8.666;2023-10-19T08:27:52;16.50;99.90
5554;DHT22;2800;49.528;8.666;2023-10-19T08:30:22;16.90;99.90
5554;DHT22;2800;49.528;8.666;2023-10-19T08:32:48;16.90;99.90
5554;DHT22;2800;49.528;8.666;2023-10-19T08:35:18;17.30;99.90
5554;DHT22;2800;49.528;8.666;2023-10-19T08:37:46;17.60;99.90
5554;DHT22;2800;49.528;8.666;2023-10-19T08:40:13;18.00;99.90
5554;DHT22;2800;49.528;8.666;2023-10-19T08:42:44;18.10;99.90
5554;DHT22;2800;49.528;8.666;2023-10-19T08:45:11;18.60;99.90
5554;DHT22;2800;49.528;8.666;2023-10-19T08:48:00;18.70;99.90
5554;DHT22;2800;49.528;8.666;2023-10-19T08:50:28;19.00;99.90
5554;DHT22;2800;49.528;8.666;2023-10-19T08:52:56;19.10;99.90
5554;DHT22;2800;49.528;8.666;2023-10-19T08:55:21;19.20;99.90
5554;DHT22;2800;49.528;8.666;2023-10-19T08:57:49;18.40;99.90
5554;DHT22;2800;49.528;8.666;2023-10-19T09:00:16;18.10;99.90
5554;DHT22;2800;49.528;8.666;2023-10-19T09:02:47;18.30;99.90
5554;DHT22;2800;49.528;8.666;2023-10-19T09:05:13;17.80;99.90
5554;DHT22;2800;49.528;8.666;2023-10-19T09:07:47;18.00;99.90
5554;DHT22;2800;49.528;8.666;2023-10-19T09:10:26;18.30;99.90
5554;DHT22;2800;49.528;8.666;2023-10-19T09:13:04;18.50;99.90
5554;DHT22;2800;49.528;8.666;2023-10-19T09:15:34;18.80;99.90
5554;DHT22;2800;49.528;8.666;2023-10-19T09:20:40;19.80;99.90
5554;DHT22;2800;49.528;8.666;2023-10-19T09:23:07;19.90;99.90
5554;DHT22;2800;49.528;8.666;2023-10-19T09:25:33;18.80;99.90
5554;DHT22;2800;49.528;8.666;2023-10-19T09:28:00;18.70;99.90
5554;DHT22;2800;49.528;8.666;2023-10-19T09:30:29;18.90;99.90
5554;DHT22;2800;49.528;8.666;2023-10-19T09:32:57;19.10;99.90
5554;DHT22;2800;49.528;8.666;2023-10-19T09:35:24;19.40;99.90
5554;DHT22;2800;49.528;8.666;2023-10-19T09:37:56;19.80;99.90
5554;DHT22;2800;49.528;8.666;2023-10-19T09:40:23;19.40;99.90
5554;DHT22;2800;49.528;8.666;2023-10-19T09:42:53;19.60;99.90
5554;DHT22;2800;49.528;8.666;2023-10-19T09:45:24;19.80;99.90
5554;DHT22;2800;49.528;8.666;2023-10-19T09:47:54;19.80;99.90
5554;DHT22;2800;49.528;8.666;2023-10-19T09:50:20;19.60;99.90
5554;DHT22;2800;49.528;8.666;2023-10-19T09:52:45;19.20;99.90
5554;DHT22;2800;49.528;8.666;2023-10-19T09:55:22;19.10;99.90
5554;DHT22;2800;49.528;8.666;2023-10-19T09:57:53;19.40;99.90
5554;DHT22;2800;49.528;8.666;2023-10-19T10:00:20;19.60;99.90
5554;DHT22;2800;49.528;8.666;2023-10-19T10:02:50;19.80;99.90
5554;DHT22;2800;49.528;8.666;2023-10-19T10:10:48;20.30;99.90
5554;DHT22;2800;49.528;8.666;2023-10-19T10:15:57;19.30;99.90
5554;DHT22;2800;49.528;8.666;2023-10-19T10:18:26;19.40;99.90
5554;DHT22;2800;49.528;8.666;2023-10-19T10:23:40;19.70;99.90
5554;DHT22;2800;49.528;8.666;2023-10-19T10:26:06;19.80;99.90
5554;DHT22;2800;49.528;8.666;2023-10-19T10:28:33;20.00;99.90
5554;DHT22;2800;49.528;8.666;2023-10-19T10:33:44;19.90;99.90
5554;DHT22;2800;49.528;8.666;2023-10-19T10:36:11;19.60;99.90
5554;DHT22;2800;49.528;8.666;2023-10-19T10:38:37;19.20;99.90
5554;DHT22;2800;49.528;8.666;2023-10-19T10:41:04;19.00;99.90
5554;DHT22;2800;49.528;8.666;2023-10-19T10:43:30;18.80;99.90
5554;DHT22;2800;49.528;8.666;2023-10-19T10:46:08;18.80;99.90
5554;DHT22;2800;49.528;8.666;2023-10-19T10:48:40;19.10;99.90
5554;DHT22;2800;49.528;8.666;2023-10-19T10:51:24;19.20;99.90
5554;DHT22;2800;49.528;8.666;2023-10-19T10:53:52;19.10;99.90
5554;DHT22;2800;49.528;8.666;2023-10-19T10:56:22;18.90;99.90
5554;DHT22;2800;49.528;8.666;2023-10-19T10:58:48;18.70;99.90
5554;DHT22;2800;49.528;8.666;2023-10-19T11:01:15;18.50;99.90
5554;DHT22;2800;49.528;8.666;2023-10-19T11:03:41;18.40;99.90
5554;DHT22;2800;49.528;8.666;2023-10-19T11:06:11;18.40;99.90
5554;DHT22;2800;49.528;8.666;2023-10-19T11:08:38;18.50;99.90
5554;DHT22;2800;49.528;8.666;2023-10-19T11:11:08;18.50;99.90
5554;DHT22;2800;49.528;8.666;2023-10-19T11:13:38;18.50;99.90
5554;DHT22;2800;49.528;8.666;2023-10-19T11:16:07;18.30;99.90
5554;DHT22;2800;49.528;8.666;2023-10-19T11:18:41;18.20;99.90
5554;DHT22;2800;49.528;8.666;2023-10-19T11:21:12;18.20;99.90
5554;DHT22;2800;49.528;8.666;2023-10-19T11:23:41;18.20;99.90
5554;DHT22;2800;49.528;8.666;2023-10-19T11:26:08;18.10;99.90
5554;DHT22;2800;49.528;8.666;2023-10-19T11:28:35;18.10;99.90
5554;DHT22;2800;49.528;8.666;2023-10-19T11:31:18;18.10;99.90
5554;DHT22;2800;49.528;8.666;2023-10-19T11:33:45;18.10;99.90
5554;DHT22;2800;49.528;8.666;2023-10-19T11:36:12;18.10;99.90
5554;DHT22;2800;49.528;8.666;2023-10-19T11:38:40;18.10;99.90
5554;DHT22;2800;49.528;8.666;2023-10-19T11:41:05;18.00;99.90
5554;DHT22;2800;49.528;8.666;2023-10-19T11:43:31;18.00;99.90
5554;DHT22;2800;49.528;8.666;2023-10-19T11:45:56;18.10;99.90
5554;DHT22;2800;49.528;8.666;2023-10-19T11:48:22;18.10;99.90
5554;DHT22;2800;49.528;8.666;2023-10-19T11:50:47;18.10;99.90
5554;DHT22;2800;49.528;8.666;2023-10-19T11:53:13;17.90;99.90
5554;DHT22;2800;49.528;8.666;2023-10-19T11:55:38;17.80;99.90
5554;DHT22;2800;49.528;8.666;2023-10-19T11:58:07;17.80;99.90
5554;DHT22;2800;49.528;8.666;2023-10-19T12:00:36;17.70;99.90
5554;DHT22;2800;49.528;8.666;2023-10-19T12:03:03;17.60;99.90
5554;DHT22;2800;49.528;8.666;2023-10-19T12:05:29;17.70;99.90
5554;DHT22;2800;49.528;8.666;2023-10-19T12:07:55;17.80;99.90
5554;DHT22;2800;49.528;8.666;2023-10-19T12:10:22;17.80;99.90
5554;DHT22;2800;49.528;8.666;2023-10-19T12:12:54;17.80;99.90
5554;DHT22;2800;49.528;8.666;2023-10-19T12:15:22;17.80;99.90
5554;DHT22;2800;49.528;8.666;2023-10-19T12:17:48;17.80;99.90
5554;DHT22;2800;49.528;8.666;2023-10-19T12:20:15;17.80;99.90
5554;DHT22;2800;49.528;8.666;2023-10-19T12:22:41;17.80;99.90
5554;DHT22;2800;49.528;8.666;2023-10-19T12:25:07;17.80;99.90
5554;DHT22;2800;49.528;8.666;2023-10-19T12:27:33;17.80;99.90
5554;DHT22;2800;49.528;8.666;2023-10-19T12:29:59;17.80;99.90
5554;DHT22;2800;49.528;8.666;2023-10-19T12:32:25;17.80;99.90
5554;DHT22;2800;49.528;8.666;2023-10-19T12:34:51;17.80;99.90
5554;DHT22;2800;49.528;8.666;2023-10-19T12:37:23;17.80;99.90
5554;DHT22;2800;49.528;8.666;2023-10-19T12:39:49;17.70;99.90
5554;DHT22;2800;49.528;8.666;2023-10-19T12:42:18;17.60;99.90
5554;DHT22;2800;49.528;8.666;2023-10-19T12:44:43;17.50;99.90
5554;DHT22;2800;49.528;8.666;2023-10-19T12:47:10;17.50;99.90
5554;DHT22;2800;49.528;8.666;2023-10-19T12:49:38;17.30;99.90
5554;DHT22;2800;49.528;8.666;2023-10-19T12:52:04;17.20;99.90
5554;DHT22;2800;49.528;8.666;2023-10-19T12:54:32;17.20;99.90
5554;DHT22;2800;49.528;8.666;2023-10-19T12:57:00;17.10;99.90
5554;DHT22;2800;49.528;8.666;2023-10-19T12:59:25;16.90;99.90
5554;DHT22;2800;49.528;8.666;2023-10-19T13:01:51;16.90;99.90
5554;DHT22;2800;49.528;8.666;2023-10-19T13:04:20;16.90;99.90
5554;DHT22;2800;49.528;8.666;2023-10-19T13:06:46;16.80;99.90
5554;DHT22;2800;49.528;8.666;2023-10-19T13:09:14;16.70;99.90
5554;DHT22;2800;49.528;8.666;2023-10-19T13:11:49;16.70;99.90
5554;DHT22;2800;49.528;8.666;2023-10-19T13:14:18;16.70;99.90
5554;DHT22;2800;49.528;8.666;2023-10-19T13:16:44;16.60;99.90
5554;DHT22;2800;49.528;8.666;2023-10-19T13:19:10;16.60;99.90
5554;DHT22;2800;49.528;8.666;2023-10-19T13:21:41;16.60;99.90
5554;DHT22;2800;49.528;8.666;2023-10-19T13:24:08;16.40;99.90
5554;DHT22;2800;49.528;8.666;2023-10-19T13:26:34;16.50;99.90
5554;DHT22;2800;49.528;8.666;2023-10-19T13:29:00;16.50;99.90
5554;DHT22;2800;49.528;8.666;2023-10-19T13:31:25;16.60;99.90
5554;DHT22;2800;49.528;8.666;2023-10-19T13:33:52;16.50;99.90
5554;DHT22;2800;49.528;8.666;2023-10-19T13:36:18;16.50;99.90
5554;DHT22;2800;49.528;8.666;2023-10-19T13:38:45;16.40;99.90
5554;DHT22;2800;49.528;8.666;2023-10-19T13:41:11;16.30;99.90
5554;DHT22;2800;49.528;8.666;2023-10-19T13:43:39;16.40;99.90
5554;DHT22;2800;49.528;8.666;2023-10-19T13:46:04;16.40;99.90
5554;DHT22;2800;49.528;8.666;2023-10-19T13:48:31;16.50;99.90
5554;DHT22;2800;49.528;8.666;2023-10-19T13:50:59;16.40;99.90
5554;DHT22;2800;49.528;8.666;2023-10-19T13:53:38;16.50;99.90
5554;DHT22;2800;49.528;8.666;2023-10-19T13:56:07;16.40;99.90
5554;DHT22;2800;49.528;8.666;2023-10-19T13:58:34;16.40;99.90
5554;DHT22;2800;49.528;8.666;2023-10-19T14:01:00;16.40;99.90
5554;DHT22;2800;49.528;8.666;2023-10-19T14:03:25;16.40;99.90
5554;DHT22;2800;49.528;8.666;2023-10-19T14:05:51;16.40;99.90
5554;DHT22;2800;49.528;8.666;2023-10-19T14:08:21;16.40;99.90
5554;DHT22;2800;49.528;8.666;2023-10-19T14:10:47;16.40;99.90
5554;DHT22;2800;49.528;8.666;2023-10-19T14:13:13;16.40;99.90
5554;DHT22;2800;49.528;8.666;2023-10-19T14:15:40;16.40;99.90
5554;DHT22;2800;49.528;8.666;2023-10-19T14:18:06;16.40;99.90
5554;DHT22;2800;49.528;8.666;2023-10-19T14:20:31;16.30;99.90
5554;DHT22;2800;49.528;8.666;2023-10-19T14:23:00;16.30;99.90
5554;DHT22;2800;49.528;8.666;2023-10-19T14:25:26;16.30;99.90
5554;DHT22;2800;49.528;8.666;2023-10-19T14:27:54;16.30;99.90
5554;DHT22;2800;49.528;8.666;2023-10-19T14:30:24;16.30;99.90
5554;DHT22;2800;49.528;8.666;2023-10-19T14:32:50;16.30;99.90
5554;DHT22;2800;49.528;8.666;2023-10-19T14:35:17;16.40;99.90
5554;DHT22;2800;49.528;8.666;2023-10-19T14:37:46;16.40;99.90
5554;DHT22;2800;49.528;8.666;2023-10-19T14:40:17;16.40;99.90
5554;DHT22;2800;49.528;8.666;2023-10-19T14:42:45;16.30;99.90
5554;DHT22;2800;49.528;8.666;2023-10-19T14:45:13;16.40;99.90
5554;DHT22;2800;49.528;8.666;2023-10-19T14:47:40;16.30;99.90
5554;DHT22;2800;49.528;8.666;2023-10-19T14:50:15;16.30;99.90
5554;DHT22;2800;49.528;8.666;2023-10-19T14:52:44;16.30;99.90
5554;DHT22;2800;49.528;8.666;2023-10-19T14:55:11;16.30;99.90
5554;DHT22;2800;49.528;8.666;2023-10-19T14:57:39;16.30;99.90
5554;DHT22;2800;49.528;8.666;2023-10-19T15:00:05;16.30;99.90
5554;DHT22;2800;49.528;8.666;2023-10-19T15:02:47;16.30;99.90
5554;DHT22;2800;49.528;8.666;2023-10-19T15:05:13;16.30;99.90
5554;DHT22;2800;49.528;8.666;2023-10-19T15:07:40;16.30;99.90
5554;DHT22;2800;49.528;8.666;2023-10-19T15:10:07;16.30;99.90
5554;DHT22;2800;49.528;8.666;2023-10-19T15:12:36;16.30;99.90
5554;DHT22;2800;49.528;8.666;2023-10-19T15:15:02;16.30;99.90
5554;DHT22;2800;49.528;8.666;2023-10-19T15:17:27;16.30;99.90
5554;DHT22;2800;49.528;8.666;2023-10-19T15:19:53;16.30;99.90
5554;DHT22;2800;49.528;8.666;2023-10-19T15:22:19;16.40;99.90
5554;DHT22;2800;49.528;8.666;2023-10-19T15:24:44;16.50;99.90
5554;DHT22;2800;49.528;8.666;2023-10-19T15:27:10;16.80;99.90
5554;DHT22;2800;49.528;8.666;2023-10-19T15:29:36;17.20;99.90
5554;DHT22;2800;49.528;8.666;2023-10-19T15:32:01;17.30;99.90
5554;DHT22;2800;49.528;8.666;2023-10-19T15:34:27;18.00;99.90
5554;DHT22;2800;49.528;8.666;2023-10-19T15:36:54;18.90;99.90
5554;DHT22;2800;49.528;8.666;2023-10-19T15:39:20;19.30;99.90
5554;DHT22;2800;49.528;8.666;2023-10-19T15:41:46;18.90;99.90
5554;DHT22;2800;49.528;8.666;2023-10-19T15:44:12;18.70;99.90
5554;DHT22;2800;49.528;8.666;2023-10-19T15:46:37;17.90;99.90
5554;DHT22;2800;49.528;8.666;2023-10-19T15:49:05;17.50;99.90
5554;DHT22;2800;49.528;8.666;2023-10-19T15:51:34;17.10;99.90
5554;DHT22;2800;49.528;8.666;2023-10-19T15:53:59;16.80;99.90
5554;DHT22;2800;49.528;8.666;2023-10-19T15:56:27;16.60;99.90
5554;DHT22;2800;49.528;8.666;2023-10-19T15:58:54;16.50;99.90
5554;DHT22;2800;49.528;8.666;2023-10-19T16:01:19;16.50;99.90
5554;DHT22;2800;49.528;8.666;2023-10-19T16:03:45;16.40;99.90
5554;DHT22;2800;49.528;8.666;2023-10-19T16:06:11;16.40;99.90
5554;DHT22;2800;49.528;8.666;2023-10-19T16:08:36;16.30;99.90
5554;DHT22;2800;49.528;8.666;2023-10-19T16:11:03;16.20;99.90
5554;DHT22;2800;49.528;8.666;2023-10-19T16:13:29;16.10;99.90
5554;DHT22;2800;49.528;8.666;2023-10-19T16:15:54;16.10;99.90
5554;DHT22;2800;49.528;8.666;2023-10-19T16:18:20;16.00;99.90
5554;DHT22;2800;49.528;8.666;2023-10-19T16:20:46;16.00;99.90
5554;DHT22;2800;49.528;8.666;2023-10-19T16:23:11;16.10;99.90
5554;DHT22;2800;49.528;8.666;2023-10-19T16:25:36;16.00;99.90
5554;DHT22;2800;49.528;8.666;2023-10-19T16:28:02;16.00;99.90
5554;DHT22;2800;49.528;8.666;2023-10-19T16:30:28;16.00;99.90